Overview Statistics Trail Chart Weather Telemetry Raw packets
 

This is the latest recevied weather packets stored in our database for station/object 9W2CHF-3. If no packets are shown the sender has not sent any weather packets the latest 10 day(s).

<< 20 21 22 23 24 25 26 >>
Time Temp. Humidity Pressure Rain* Wind** Luminosity Snow
1777125996 32.22° C 82% 1012 hPa - - - -
1777124796 32.78° C 77% 1012 hPa - - - -
1777123596 33.33° C 76% 1011.7 hPa - - - -
1777122396 33.89° C 74% 1011.4 hPa - - - -
1777121196 33.33° C 75% 1011.2 hPa - - - -
1777119996 33.33° C 76% 1010.7 hPa - - - -
1777118796 33.89° C 73% 1010.2 hPa - - - -
1777117596 33.89° C 71% 1010 hPa - - - -
1777116396 33.89° C 71% 1009.7 hPa - - - -
1777115196 34.44° C 69% 1009.5 hPa - - - -
1777113996 35° C 66% 1009.4 hPa - - - -
1777112796 35° C 66% 1009.4 hPa - - - -
1777111596 35.56° C 62% 1009 hPa - - - -
1777110396 36.67° C 59% 1008.9 hPa - - - -
1777109195 38.33° C 54% 1008.6 hPa - - - -
1777107995 38.89° C 51% 1008.4 hPa - - - -
1777106795 40.56° C 47% 1008.1 hPa - - - -
1777105595 39.44° C 51% 1008 hPa - - - -
1777104395 39.44° C 48% 1008.2 hPa - - - -
1777103195 40° C 49% 1008.2 hPa - - - -
1777101995 41.11° C 45% 1008.3 hPa - - - -
1777100794 40.56° C 47% 1008.5 hPa - - - -
1777099594 41.67° C 44% 1008.9 hPa - - - -
1777098399 41.11° C 46% 1009.2 hPa - - - -
1777097199 41.11° C 45% 1009.4 hPa - - - -

* Rain since midnight (hover to see other rain measurements)
** Current wind speed in m/s (hover to see current wind gust speed)